createdAt,value
2022-09-27T00:01:12.830Z,100.00
2022-09-27T00:03:40.805Z,100.00
2022-09-27T00:06:32.908Z,100.00
2022-09-27T00:09:00.769Z,100.00
2022-09-27T00:11:34.964Z,100.00
2022-09-27T00:14:03.246Z,97.62
2022-09-27T00:16:33.903Z,100.00
2022-09-27T00:19:04.559Z,100.00
2022-09-27T00:21:32.398Z,100.00
2022-09-27T00:24:00.558Z,100.00
2022-09-27T00:26:28.298Z,100.00
2022-09-27T00:28:56.476Z,100.00
2022-09-27T00:31:32.410Z,100.00
2022-09-27T00:34:02.566Z,100.00
2022-09-27T00:36:31.653Z,100.00
2022-09-27T00:39:01.239Z,100.00
2022-09-27T00:41:33.824Z,99.61
2022-09-27T00:44:22.493Z,96.69
2022-09-27T00:47:03.081Z,100.00
2022-09-27T00:49:48.535Z,100.00
2022-09-27T00:52:24.713Z,100.00
2022-09-27T00:54:59.022Z,97.84
2022-09-27T00:57:26.669Z,95.26
2022-09-27T01:00:02.138Z,97.16
2022-09-27T01:02:33.504Z,96.21
2022-09-27T01:05:01.702Z,100.00
2022-09-27T01:07:30.416Z,100.00
2022-09-27T01:09:58.946Z,100.00
2022-09-27T01:12:26.380Z,100.00
2022-09-27T01:15:05.994Z,98.71
2022-09-27T01:18:07.445Z,100.00
2022-09-27T01:20:50.075Z,96.79
2022-09-27T01:23:56.668Z,98.31
2022-09-27T01:26:43.019Z,100.00
2022-09-27T01:29:20.620Z,100.00
2022-09-27T01:32:00.632Z,100.00
2022-09-27T01:34:50.933Z,100.00
2022-09-27T01:37:40.462Z,98.16
2022-09-27T01:40:25.333Z,96.70
2022-09-27T01:43:22.970Z,97.63
2022-09-27T01:46:03.032Z,96.96
2022-09-27T01:48:51.042Z,92.86
2022-09-27T01:51:32.072Z,96.40
2022-09-27T01:54:04.393Z,97.64
2022-09-27T01:57:11.132Z,97.61
2022-09-27T01:59:59.633Z,100.00
2022-09-27T02:03:17.833Z,100.00
2022-09-27T02:06:12.887Z,97.73
2022-09-27T02:08:59.749Z,95.02
2022-09-27T02:11:58.337Z,93.35
2022-09-27T02:14:35.327Z,95.83
2022-09-27T02:17:17.388Z,98.51
2022-09-27T02:20:13.992Z,100.00
2022-09-27T02:23:15.505Z,100.00
2022-09-27T02:25:46.313Z,97.81
2022-09-27T02:28:29.162Z,98.35
2022-09-27T02:30:57.211Z,96.41
2022-09-27T02:34:03.030Z,100.00
2022-09-27T02:36:31.986Z,98.49
2022-09-27T02:39:00.503Z,94.09
2022-09-27T02:41:30.122Z,94.09
2022-09-27T02:44:02.899Z,100.00
2022-09-27T02:46:31.960Z,100.00
2022-09-27T02:49:20.750Z,100.00
2022-09-27T02:52:09.432Z,100.00
2022-09-27T02:54:52.068Z,100.00
2022-09-27T02:57:55.627Z,100.00
2022-09-27T03:01:00.424Z,100.00
2022-09-27T03:03:50.013Z,100.00
2022-09-27T03:06:20.827Z,100.00
2022-09-27T03:08:48.875Z,100.00
2022-09-27T03:11:16.601Z,100.00
2022-09-27T03:14:01.818Z,100.00
2022-09-27T03:16:33.551Z,100.00
2022-09-27T03:19:25.097Z,100.00
2022-09-27T03:22:24.931Z,100.00
2022-09-27T03:24:53.082Z,100.00
2022-09-27T03:27:20.561Z,100.00
2022-09-27T03:29:48.066Z,100.00
2022-09-27T03:32:16.509Z,100.00
2022-09-27T03:35:02.526Z,100.00
2022-09-27T03:37:30.150Z,100.00
2022-09-27T03:39:57.796Z,100.00
2022-09-27T03:42:25.558Z,100.00
2022-09-27T03:44:54.103Z,100.00
2022-09-27T03:47:22.579Z,100.00
2022-09-27T03:49:50.180Z,100.00
2022-09-27T03:52:18.799Z,100.00
2022-09-27T03:54:46.532Z,100.00
2022-09-27T03:57:14.559Z,100.00
2022-09-27T03:59:41.995Z,100.00
2022-09-27T04:02:44.847Z,100.00
2022-09-27T04:05:26.891Z,100.00
2022-09-27T04:08:01.110Z,100.00
2022-09-27T04:10:31.222Z,100.00
2022-09-27T04:12:59.211Z,100.00
2022-09-27T04:15:31.073Z,100.00
2022-09-27T04:18:16.371Z,100.00
2022-09-27T04:21:04.137Z,100.00
2022-09-27T04:23:34.079Z,100.00
2022-09-27T04:26:01.774Z,100.00
2022-09-27T04:28:54.552Z,100.00
2022-09-27T04:31:23.352Z,100.00
2022-09-27T04:33:55.107Z,100.00
2022-09-27T04:36:27.824Z,100.00
2022-09-27T04:39:16.860Z,100.00
2022-09-27T04:41:45.803Z,100.00
2022-09-27T04:44:13.754Z,100.00
2022-09-27T04:46:46.954Z,100.00
2022-09-27T04:49:17.595Z,100.00
2022-09-27T04:51:45.873Z,100.00
2022-09-27T04:54:13.270Z,99.76
2022-09-27T04:56:52.091Z,98.99
2022-09-27T04:59:20.389Z,98.41
2022-09-27T05:01:48.125Z,95.65
2022-09-27T05:04:37.531Z,90.60
2022-09-27T05:07:07.180Z,94.69
2022-09-27T05:09:43.029Z,96.50
2022-09-27T05:12:10.590Z,90.25
2022-09-27T05:14:47.502Z,85.98
2022-09-27T05:17:34.363Z,86.17
2022-09-27T05:20:20.764Z,87.41
2022-09-27T05:22:59.294Z,89.59
2022-09-27T05:25:27.381Z,89.73
2022-09-27T05:27:54.875Z,91.90
2022-09-27T05:30:22.408Z,91.01
2022-09-27T05:32:58.873Z,90.02
2022-09-27T05:35:26.451Z,88.63
2022-09-27T05:38:00.546Z,87.05
2022-09-27T05:40:46.347Z,83.99
2022-09-27T05:43:14.658Z,87.55
2022-09-27T05:45:43.709Z,87.85
2022-09-27T05:48:14.457Z,85.84
2022-09-27T05:51:08.181Z,81.45
2022-09-27T05:53:39.493Z,79.28
2022-09-27T05:56:12.683Z,75.76
2022-09-27T05:59:00.368Z,74.07
2022-09-27T06:01:36.538Z,73.85
2022-09-27T06:04:36.498Z,68.85
2022-09-27T06:07:32.351Z,71.76
2022-09-27T06:10:01.675Z,72.38
2022-09-27T06:12:31.327Z,71.33
2022-09-27T06:15:00.137Z,72.24
2022-09-27T06:17:36.147Z,69.51
2022-09-27T06:20:11.546Z,67.51
2022-09-27T06:22:39.668Z,65.98
2022-09-27T06:25:08.350Z,67.35
2022-09-27T06:27:43.893Z,66.34
2022-09-27T06:30:20.909Z,66.40
2022-09-27T06:33:00.766Z,64.16
2022-09-27T06:35:50.975Z,65.34
2022-09-27T06:38:20.154Z,61.97
2022-09-27T06:41:03.560Z,61.22
2022-09-27T06:43:39.431Z,59.22
2022-09-27T06:46:32.714Z,57.83
2022-09-27T06:49:12.381Z,58.58
2022-09-27T06:51:41.339Z,58.71
2022-09-27T06:54:09.120Z,58.38
2022-09-27T06:56:37.470Z,55.19
2022-09-27T06:59:23.169Z,55.95
2022-09-27T07:01:53.144Z,55.40
2022-09-27T07:04:38.954Z,52.84
2022-09-27T07:07:14.712Z,55.13
2022-09-27T07:09:46.096Z,54.74
2022-09-27T07:12:14.204Z,53.50
2022-09-27T07:14:43.060Z,50.65
2022-09-27T07:17:16.416Z,52.20
2022-09-27T07:19:49.301Z,53.50
2022-09-27T07:22:16.818Z,52.75
2022-09-27T07:24:48.019Z,53.24
2022-09-27T07:27:16.485Z,53.91
2022-09-27T07:29:43.857Z,54.98
2022-09-27T07:32:11.399Z,50.85
2022-09-27T07:34:39.755Z,52.63
2022-09-27T07:37:07.894Z,53.95
2022-09-27T07:39:39.552Z,50.68
2022-09-27T07:42:07.117Z,50.60
2022-09-27T07:44:38.116Z,51.64
2022-09-27T07:47:19.814Z,51.55
2022-09-27T07:50:13.180Z,52.76
2022-09-27T07:52:48.635Z,52.31
2022-09-27T07:55:30.057Z,51.35
2022-09-27T07:58:07.455Z,53.75
2022-09-27T08:00:37.423Z,53.75
2022-09-27T08:03:08.658Z,52.51
2022-09-27T08:05:37.240Z,52.12
2022-09-27T08:08:05.704Z,51.29
2022-09-27T08:10:34.809Z,51.43
2022-09-27T08:13:05.070Z,52.83
2022-09-27T08:15:33.792Z,52.50
2022-09-27T08:18:02.670Z,53.23
2022-09-27T08:21:00.910Z,49.22
2022-09-27T08:23:46.971Z,52.51
2022-09-27T08:26:22.472Z,54.15
2022-09-27T08:29:13.038Z,48.98
2022-09-27T08:31:51.629Z,50.50
2022-09-27T08:34:20.051Z,51.91
2022-09-27T08:36:47.750Z,54.31
2022-09-27T08:39:15.730Z,50.38
2022-09-27T08:42:03.074Z,50.48
2022-09-27T08:45:12.065Z,50.64
2022-09-27T08:47:52.868Z,51.16
2022-09-27T08:50:39.675Z,50.04
2022-09-27T08:53:15.227Z,48.45
2022-09-27T08:55:48.398Z,48.43
2022-09-27T08:58:36.237Z,48.63
2022-09-27T09:01:16.975Z,48.22
2022-09-27T09:04:00.007Z,45.92
2022-09-27T09:06:40.215Z,46.66
2022-09-27T09:10:09.409Z,46.93
2022-09-27T09:13:01.299Z,47.08
2022-09-27T09:16:11.612Z,46.70
2022-09-27T09:19:05.501Z,46.43
2022-09-27T09:22:09.364Z,46.04
2022-09-27T09:24:46.611Z,47.30
2022-09-27T09:27:42.243Z,46.62
2022-09-27T09:30:22.653Z,46.86
2022-09-27T09:33:16.766Z,46.01
2022-09-27T09:35:59.374Z,46.60
2022-09-27T09:38:40.850Z,44.98
2022-09-27T09:41:28.054Z,46.47
2022-09-27T09:44:22.212Z,46.21
2022-09-27T09:46:56.163Z,44.76
2022-09-27T09:49:33.067Z,44.04
2022-09-27T09:52:09.095Z,44.92
2022-09-27T09:55:02.580Z,45.91
2022-09-27T09:58:04.604Z,44.98
2022-09-27T10:00:42.447Z,45.16
2022-09-27T10:03:10.464Z,43.88
2022-09-27T10:05:38.492Z,44.45
2022-09-27T10:08:23.208Z,45.31
2022-09-27T10:11:05.209Z,45.53
2022-09-27T10:13:48.543Z,45.89
2022-09-27T10:16:20.779Z,44.50
2022-09-27T10:18:51.246Z,45.29
2022-09-27T10:21:26.158Z,46.31
2022-09-27T10:24:17.738Z,45.43
2022-09-27T10:27:07.099Z,44.77
2022-09-27T10:29:39.361Z,45.01
2022-09-27T10:32:44.925Z,44.56
2022-09-27T10:35:40.131Z,44.45
2022-09-27T10:38:19.320Z,45.23
2022-09-27T10:40:52.588Z,44.96
2022-09-27T10:43:36.124Z,46.05
2022-09-27T10:46:33.185Z,46.70
2022-09-27T10:49:32.987Z,46.32
2022-09-27T10:52:24.434Z,45.19
2022-09-27T10:55:06.082Z,45.79
2022-09-27T10:57:34.380Z,46.32
2022-09-27T11:00:08.023Z,45.29
2022-09-27T11:02:38.085Z,44.85
2022-09-27T11:05:15.573Z,45.42
2022-09-27T11:07:54.471Z,45.71
2022-09-27T11:10:37.606Z,45.13
2022-09-27T11:13:18.498Z,46.06
2022-09-27T11:16:09.206Z,45.60
2022-09-27T11:18:49.182Z,45.15
2022-09-27T11:21:32.463Z,45.19
2022-09-27T11:24:48.291Z,45.25
2022-09-27T11:27:49.930Z,45.61
2022-09-27T11:30:24.366Z,45.48
2022-09-27T11:33:37.052Z,45.60
2022-09-27T11:36:21.843Z,46.14
2022-09-27T11:39:17.431Z,46.36
2022-09-27T11:41:59.645Z,45.44
2022-09-27T11:44:47.806Z,47.14
2022-09-27T11:47:54.819Z,46.72
2022-09-27T11:50:32.933Z,46.06
2022-09-27T11:53:33.830Z,46.75
2022-09-27T11:56:22.983Z,47.14
2022-09-27T11:59:05.773Z,46.97
2022-09-27T12:01:57.204Z,46.80
2022-09-27T12:04:27.974Z,46.10
2022-09-27T12:07:03.162Z,45.83
2022-09-27T12:09:43.735Z,47.56
2022-09-27T12:12:23.198Z,47.35
2022-09-27T12:15:14.830Z,47.00
2022-09-27T12:17:47.087Z,47.42
2022-09-27T12:20:19.716Z,48.69
2022-09-27T12:23:03.554Z,48.44
2022-09-27T12:26:41.372Z,48.23
2022-09-27T12:29:30.728Z,47.61
2022-09-27T12:32:31.751Z,47.42
2022-09-27T12:35:22.222Z,47.58
2022-09-27T12:38:05.885Z,47.47
2022-09-27T12:40:39.168Z,48.13
2022-09-27T12:43:21.958Z,48.63
2022-09-27T12:46:15.280Z,47.98
2022-09-27T12:49:05.941Z,48.77
2022-09-27T12:51:56.133Z,49.14
2022-09-27T12:54:39.215Z,48.48
2022-09-27T12:57:36.656Z,49.08
2022-09-27T13:00:07.241Z,48.68
2022-09-27T13:03:15.878Z,48.59
2022-09-27T13:06:06.208Z,49.10
2022-09-27T13:08:37.087Z,48.49
2022-09-27T13:11:26.560Z,49.22
2022-09-27T13:14:00.350Z,49.02
2022-09-27T13:16:28.757Z,48.46
2022-09-27T13:19:04.422Z,49.16
2022-09-27T13:21:50.619Z,48.67
2022-09-27T13:24:39.715Z,48.75
2022-09-27T13:27:30.405Z,50.36
2022-09-27T13:30:08.843Z,49.19
2022-09-27T13:32:41.140Z,49.23
2022-09-27T13:35:27.565Z,50.15
2022-09-27T13:38:24.429Z,49.39
2022-09-27T13:40:54.253Z,49.45
2022-09-27T13:43:59.744Z,50.47
2022-09-27T13:46:53.778Z,49.67
2022-09-27T13:49:33.882Z,49.56
2022-09-27T13:52:20.954Z,50.08
2022-09-27T13:54:59.553Z,49.35
2022-09-27T13:57:51.996Z,49.85
2022-09-27T14:00:25.990Z,50.73
2022-09-27T14:03:00.042Z,49.96
2022-09-27T14:05:58.695Z,50.90
2022-09-27T14:08:38.350Z,51.54
2022-09-27T14:11:13.626Z,51.22
2022-09-27T14:13:45.614Z,51.30
2022-09-27T14:16:18.606Z,51.24
2022-09-27T14:19:01.164Z,51.63
2022-09-27T14:21:40.326Z,51.15
2022-09-27T14:24:28.860Z,51.38
2022-09-27T14:27:23.751Z,50.88
2022-09-27T14:30:02.997Z,49.27
2022-09-27T14:32:35.290Z,49.94
2022-09-27T14:35:37.533Z,50.69
2022-09-27T14:38:35.987Z,50.54
2022-09-27T14:41:03.504Z,50.33
2022-09-27T14:43:34.621Z,50.25
2022-09-27T14:46:07.350Z,49.42
2022-09-27T14:48:36.471Z,50.29
2022-09-27T14:51:08.522Z,49.65
2022-09-27T14:53:57.430Z,50.47
2022-09-27T14:56:35.090Z,50.75
2022-09-27T14:59:14.728Z,50.14
2022-09-27T15:01:52.508Z,51.08
2022-09-27T15:04:21.831Z,50.44
2022-09-27T15:06:50.048Z,50.32
2022-09-27T15:09:18.883Z,49.54
2022-09-27T15:11:51.771Z,47.61
2022-09-27T15:14:21.138Z,48.36
2022-09-27T15:16:51.231Z,48.71
2022-09-27T15:19:28.467Z,48.27
2022-09-27T15:21:57.675Z,47.82
2022-09-27T15:24:40.447Z,48.33
2022-09-27T15:27:34.251Z,47.78
2022-09-27T15:30:01.961Z,46.97
2022-09-27T15:32:31.399Z,47.23
2022-09-27T15:35:08.844Z,48.26
2022-09-27T15:37:38.764Z,47.81
2022-09-27T15:40:19.273Z,47.60
2022-09-27T15:42:58.379Z,48.80
2022-09-27T15:45:34.890Z,47.76
2022-09-27T15:48:17.198Z,49.08
2022-09-27T15:50:44.893Z,47.34
2022-09-27T15:53:32.332Z,47.84
2022-09-27T15:56:01.475Z,49.85
2022-09-27T15:58:29.605Z,47.41
2022-09-27T16:01:05.898Z,50.76
2022-09-27T16:03:34.613Z,50.20
2022-09-27T16:06:04.968Z,48.85
2022-09-27T16:08:32.493Z,50.82
2022-09-27T16:11:05.896Z,50.18
2022-09-27T16:13:33.536Z,49.40
2022-09-27T16:16:03.645Z,49.29
2022-09-27T16:18:33.101Z,49.08
2022-09-27T16:21:00.826Z,49.29
2022-09-27T16:23:28.413Z,49.44
2022-09-27T16:25:55.925Z,49.33
2022-09-27T16:28:23.436Z,49.16
2022-09-27T16:30:51.036Z,49.95
2022-09-27T16:33:18.763Z,49.67
2022-09-27T16:35:46.651Z,49.89
2022-09-27T16:38:14.489Z,49.57
2022-09-27T16:40:42.174Z,50.07
2022-09-27T16:43:12.560Z,50.26
2022-09-27T16:45:40.007Z,48.17
2022-09-27T16:48:07.444Z,49.25
2022-09-27T16:50:53.330Z,48.87
2022-09-27T16:53:20.987Z,48.59
2022-09-27T16:55:48.431Z,48.84
2022-09-27T16:58:16.096Z,49.10
2022-09-27T17:00:44.376Z,48.33
2022-09-27T17:03:11.846Z,47.67
2022-09-27T17:05:40.412Z,48.80
2022-09-27T17:08:08.312Z,48.08
2022-09-27T17:10:36.103Z,49.78
2022-09-27T17:13:03.666Z,48.50
2022-09-27T17:15:31.749Z,48.19
2022-09-27T17:17:59.337Z,49.31
2022-09-27T17:20:27.072Z,49.37
2022-09-27T17:22:54.820Z,49.02
2022-09-27T17:25:22.454Z,47.47
2022-09-27T17:27:49.968Z,48.65
2022-09-27T17:30:17.687Z,49.66
2022-09-27T17:32:45.173Z,49.14
2022-09-27T17:35:12.734Z,48.69
2022-09-27T17:37:40.345Z,49.09
2022-09-27T17:40:08.344Z,49.11
2022-09-27T17:42:37.420Z,48.45
2022-09-27T17:45:05.073Z,49.55
2022-09-27T17:47:50.873Z,48.34
2022-09-27T17:50:28.979Z,48.48
2022-09-27T17:52:58.417Z,49.15
2022-09-27T17:55:27.326Z,49.58
2022-09-27T17:57:55.094Z,48.41
2022-09-27T18:00:23.133Z,48.09
2022-09-27T18:02:50.840Z,48.40
2022-09-27T18:05:21.397Z,47.23
2022-09-27T18:07:49.495Z,47.27
2022-09-27T18:10:18.181Z,47.31
2022-09-27T18:12:45.869Z,46.50
2022-09-27T18:15:13.533Z,48.57
2022-09-27T18:17:41.180Z,46.85
2022-09-27T18:20:10.780Z,46.49
2022-09-27T18:22:39.207Z,48.13
2022-09-27T18:25:07.238Z,49.12
2022-09-27T18:27:35.109Z,48.25
2022-09-27T18:30:03.659Z,48.48
2022-09-27T18:32:31.373Z,48.80
2022-09-27T18:34:58.889Z,47.96
2022-09-27T18:37:27.371Z,48.11
2022-09-27T18:39:55.864Z,49.44
2022-09-27T18:42:23.474Z,48.33
2022-09-27T18:44:51.581Z,47.47
2022-09-27T18:47:19.278Z,46.57
2022-09-27T18:49:46.803Z,46.92
2022-09-27T18:52:14.404Z,48.53
2022-09-27T18:54:42.237Z,47.84
2022-09-27T18:57:09.852Z,48.10
2022-09-27T18:59:37.971Z,47.84
2022-09-27T19:02:05.657Z,49.17
2022-09-27T19:04:33.278Z,48.84
2022-09-27T19:07:00.977Z,48.03
2022-09-27T19:09:28.838Z,47.40
2022-09-27T19:11:56.570Z,48.44
2022-09-27T19:14:24.297Z,47.89
2022-09-27T19:16:51.840Z,47.46
2022-09-27T19:19:20.425Z,49.08
2022-09-27T19:21:49.069Z,47.34
2022-09-27T19:24:16.924Z,49.17
2022-09-27T19:26:44.793Z,48.49
2022-09-27T19:29:13.426Z,49.32
2022-09-27T19:31:42.462Z,48.34
2022-09-27T19:34:11.490Z,48.37
2022-09-27T19:36:39.113Z,48.67
2022-09-27T19:39:06.832Z,48.15
2022-09-27T19:41:34.552Z,47.62
2022-09-27T19:44:02.270Z,47.94
2022-09-27T19:46:29.894Z,48.78
2022-09-27T19:48:57.917Z,48.67
2022-09-27T19:51:27.791Z,48.83
2022-09-27T19:53:55.492Z,48.43
2022-09-27T19:56:24.335Z,48.71
2022-09-27T19:58:52.395Z,48.98
2022-09-27T20:01:22.688Z,48.13
2022-09-27T20:03:53.606Z,48.37
2022-09-27T20:06:22.518Z,50.42
2022-09-27T20:08:50.222Z,48.71
2022-09-27T20:11:23.176Z,49.65
2022-09-27T20:13:53.564Z,48.70
2022-09-27T20:16:23.989Z,49.41
2022-09-27T20:18:54.354Z,49.86
2022-09-27T20:21:24.591Z,48.96
2022-09-27T20:23:54.488Z,49.17
2022-09-27T20:26:24.631Z,50.34
2022-09-27T20:28:57.413Z,49.25
2022-09-27T20:31:29.310Z,49.91
2022-09-27T20:33:57.272Z,47.02
2022-09-27T20:36:33.757Z,47.59
2022-09-27T20:39:03.988Z,48.63
2022-09-27T20:41:34.428Z,47.89
2022-09-27T20:44:05.879Z,48.82
2022-09-27T20:46:35.492Z,48.73
2022-09-27T20:49:06.138Z,49.33
2022-09-27T20:51:35.328Z,48.20
2022-09-27T20:54:04.668Z,48.97
2022-09-27T20:56:38.293Z,49.18
2022-09-27T20:59:18.203Z,49.24
2022-09-27T21:01:48.063Z,48.01
2022-09-27T21:04:17.589Z,49.22
2022-09-27T21:06:46.441Z,47.41
2022-09-27T21:09:21.396Z,48.59
2022-09-27T21:11:52.253Z,47.93
2022-09-27T21:14:20.120Z,48.38
2022-09-27T21:16:47.594Z,48.15
2022-09-27T21:19:15.179Z,47.92
2022-09-27T21:21:42.886Z,48.75
2022-09-27T21:24:10.741Z,49.21
2022-09-27T21:26:38.226Z,47.74
2022-09-27T21:29:07.978Z,47.48
2022-09-27T21:31:36.447Z,47.17
2022-09-27T21:34:05.681Z,47.86
2022-09-27T21:36:35.893Z,49.14
2022-09-27T21:39:05.070Z,49.19
2022-09-27T21:41:32.677Z,47.80
2022-09-27T21:44:03.540Z,48.80
2022-09-27T21:46:31.052Z,49.44
2022-09-27T21:49:02.098Z,48.67
2022-09-27T21:51:37.277Z,49.49
2022-09-27T21:54:08.034Z,50.33
2022-09-27T21:56:38.611Z,48.72
2022-09-27T21:59:07.723Z,49.99
2022-09-27T22:01:35.894Z,48.75
2022-09-27T22:04:06.736Z,48.75
2022-09-27T22:06:37.026Z,48.80
2022-09-27T22:09:08.340Z,49.59
2022-09-27T22:11:40.052Z,49.32
2022-09-27T22:14:08.175Z,49.02
2022-09-27T22:16:36.212Z,49.23
2022-09-27T22:19:04.505Z,49.04
2022-09-27T22:21:35.737Z,50.12
2022-09-27T22:24:11.712Z,51.47
2022-09-27T22:26:40.858Z,49.32
2022-09-27T22:29:08.912Z,48.24
2022-09-27T22:31:37.690Z,49.22
2022-09-27T22:34:07.817Z,48.09
2022-09-27T22:36:35.768Z,48.18
2022-09-27T22:39:03.666Z,48.54
2022-09-27T22:41:31.236Z,50.30
2022-09-27T22:43:58.593Z,48.56
2022-09-27T22:46:26.214Z,47.51
2022-09-27T22:48:53.919Z,48.71
2022-09-27T22:51:21.278Z,49.01
2022-09-27T22:53:48.815Z,49.15
2022-09-27T22:56:20.747Z,48.84
2022-09-27T22:58:49.504Z,48.09
2022-09-27T23:01:22.672Z,49.06
2022-09-27T23:03:52.092Z,48.69
2022-09-27T23:06:21.944Z,48.87
2022-09-27T23:08:50.150Z,49.28
2022-09-27T23:11:21.049Z,49.88
2022-09-27T23:13:50.578Z,47.75
2022-09-27T23:16:20.657Z,49.13
2022-09-27T23:18:48.223Z,48.49
2022-09-27T23:21:16.420Z,48.28
2022-09-27T23:23:46.368Z,48.30
2022-09-27T23:26:16.420Z,49.64
2022-09-27T23:28:44.565Z,48.59
2022-09-27T23:31:17.196Z,49.61
2022-09-27T23:33:48.692Z,48.74
2022-09-27T23:36:22.927Z,48.82
2022-09-27T23:38:50.678Z,49.11
2022-09-27T23:41:18.550Z,50.69
2022-09-27T23:43:46.709Z,49.92
2022-09-27T23:46:14.923Z,49.47
2022-09-27T23:48:42.944Z,49.46
2022-09-27T23:51:12.041Z,49.44
2022-09-27T23:53:40.285Z,49.48
2022-09-27T23:56:18.446Z,49.12
2022-09-27T23:58:46.861Z,49.42
